Time;durP1;ratioP1;P1;durP2;ratioP2;P2;SDS_P1;SDS_P2;PMS_P1;PMS_P2;Temp;Humidity;BMP_temperature;BMP_pressure;BME280_temperature;BME280_humidity;BME280_pressure;Samples;Min_cycle;Max_cycle;Signal;HPM_P1;HPM_P2
2021/08/31 00:01:33;;;;;;;11.63;8.73;;;15.10;99.90;;;;;;5040046;28;20041;-76
2021/08/31 00:03:59;;;;;;;10.75;8.27;;;15.20;99.90;;;;;;5039285;28;20045;-76
2021/08/31 00:06:27;;;;;;;10.52;8.52;;;15.20;99.90;;;;;;5037427;28;20037;-74
2021/08/31 00:08:53;;;;;;;10.05;8.57;;;15.10;99.90;;;;;;5038426;28;20057;-76
2021/08/31 00:11:22;;;;;;;10.45;8.18;;;15.20;99.90;;;;;;5057411;28;20363;-74
2021/08/31 00:13:48;;;;;;;10.82;8.20;;;15.20;99.90;;;;;;5036177;28;20494;-76
2021/08/31 00:16:14;;;;;;;12.90;7.95;;;15.20;99.90;;;;;;5045043;28;20025;-73
2021/08/31 00:18:43;;;;;;;10.13;8.15;;;15.10;99.90;;;;;;5055850;28;20052;-76
2021/08/31 00:21:10;;;;;;;9.60;8.27;;;15.10;99.90;;;;;;5038962;28;20034;-74
2021/08/31 00:23:37;;;;;;;10.88;7.97;;;15.10;99.90;;;;;;5036621;28;20033;-76
2021/08/31 00:26:04;;;;;;;11.40;8.10;;;15.10;99.90;;;;;;5048687;28;20474;-75
2021/08/31 00:28:30;;;;;;;9.68;7.97;;;15.00;99.90;;;;;;5036247;28;20033;-76
2021/08/31 00:30:56;;;;;;;11.65;8.38;;;14.90;99.90;;;;;;5036996;28;20037;-76
2021/08/31 00:33:23;;;;;;;10.90;8.43;;;14.90;99.90;;;;;;5036520;28;20036;-76
2021/08/31 00:35:49;;;;;;;9.85;8.10;;;14.80;99.90;;;;;;5053834;28;20052;-75
2021/08/31 00:38:16;;;;;;;10.43;8.35;;;14.70;99.90;;;;;;5042939;28;20490;-76
2021/08/31 00:40:48;;;;;;;12.10;7.55;;;14.70;99.90;;;;;;5049406;28;20038;-76
2021/08/31 00:43:18;;;;;;;13.50;8.90;;;14.60;99.90;;;;;;5041405;28;20044;-75
2021/08/31 00:45:44;;;;;;;12.57;9.15;;;14.50;99.90;;;;;;5047115;28;20042;-76
2021/08/31 00:48:14;;;;;;;11.40;8.65;;;14.50;99.90;;;;;;5037124;28;20033;-76
2021/08/31 00:50:40;;;;;;;13.15;9.35;;;14.50;99.90;;;;;;5025618;28;20053;-76
2021/08/31 00:53:10;;;;;;;11.73;8.13;;;14.40;99.90;;;;;;5045709;28;20025;-76
2021/08/31 00:55:37;;;;;;;11.38;8.77;;;14.40;99.90;;;;;;5042267;28;20054;-76
2021/08/31 00:58:07;;;;;;;12.10;8.65;;;14.30;99.90;;;;;;5048475;28;20033;-76
2021/08/31 01:00:33;;;;;;;11.32;8.63;;;14.10;99.90;;;;;;5043808;28;20052;-76
2021/08/31 01:03:00;;;;;;;10.77;8.57;;;14.00;99.90;;;;;;5056310;28;20037;-76
2021/08/31 01:05:32;;;;;;;11.68;8.70;;;14.00;99.90;;;;;;5039208;28;20045;-75
2021/08/31 01:07:59;;;;;;;12.00;8.48;;;14.00;99.90;;;;;;5040814;28;20052;-76
2021/08/31 01:10:26;;;;;;;14.30;10.35;;;13.90;99.90;;;;;;5052398;28;20042;-76
2021/08/31 01:12:56;;;;;;;12.65;9.55;;;13.90;99.90;;;;;;5036601;28;20061;-75
2021/08/31 01:15:23;;;;;;;11.25;8.75;;;13.80;99.90;;;;;;5020858;28;20041;-75
2021/08/31 01:17:56;;;;;;;14.07;9.63;;;13.70;99.90;;;;;;5037282;28;20033;-74
2021/08/31 01:20:24;;;;;;;12.50;8.63;;;13.60;99.90;;;;;;5004180;28;20585;-76
2021/08/31 01:22:59;;;;;;;14.32;10.68;;;13.60;99.90;;;;;;5021785;28;20479;-76
2021/08/31 01:25:27;;;;;;;13.20;9.75;;;13.50;99.90;;;;;;5035357;28;20510;-76
2021/08/31 01:27:53;;;;;;;13.57;9.60;;;13.50;99.90;;;;;;5037043;28;20041;-75
2021/08/31 01:30:19;;;;;;;13.90;9.80;;;13.40;99.90;;;;;;5040467;28;20041;-76
2021/08/31 01:32:46;;;;;;;17.73;9.75;;;13.40;99.90;;;;;;5039937;28;20056;-75
2021/08/31 01:35:13;;;;;;;14.45;9.95;;;13.30;99.90;;;;;;5006619;28;20049;-74
2021/08/31 01:37:39;;;;;;;14.90;10.02;;;13.30;99.90;;;;;;5041328;28;20048;-75
2021/08/31 01:40:06;;;;;;;14.77;9.65;;;13.30;99.90;;;;;;5021298;28;20053;-76
2021/08/31 01:42:36;;;;;;;12.52;9.45;;;13.20;99.90;;;;;;5026191;28;20519;-78
2021/08/31 01:45:09;;;;;;;13.40;9.82;;;13.20;99.90;;;;;;5021090;28;20056;-75
2021/08/31 01:47:37;;;;;;;15.50;10.65;;;13.20;99.90;;;;;;5019826;28;20057;-76
2021/08/31 01:50:04;;;;;;;14.60;9.45;;;13.20;99.90;;;;;;5029493;28;20045;-77
2021/08/31 01:52:32;;;;;;;14.57;9.63;;;13.10;99.90;;;;;;5006941;28;20045;-74
2021/08/31 01:54:58;;;;;;;13.35;10.40;;;13.10;99.90;;;;;;5001466;28;20046;-75
2021/08/31 01:57:25;;;;;;;14.38;9.82;;;13.00;99.90;;;;;;5020140;28;20034;-76
2021/08/31 01:59:52;;;;;;;13.32;9.20;;;12.90;99.90;;;;;;5023359;28;20053;-76
2021/08/31 02:02:19;;;;;;;16.33;9.70;;;12.90;99.90;;;;;;5005304;28;20542;-74
2021/08/31 02:04:46;;;;;;;16.42;10.60;;;12.90;99.90;;;;;;5019010;28;20034;-75
2021/08/31 02:07:13;;;;;;;16.02;10.20;;;12.80;99.90;;;;;;5002273;28;20057;-76
2021/08/31 02:09:40;;;;;;;16.05;11.23;;;12.80;99.90;;;;;;5002043;28;20065;-76
2021/08/31 02:12:07;;;;;;;19.98;11.23;;;12.80;99.90;;;;;;5050547;28;20048;-76
2021/08/31 02:14:34;;;;;;;17.10;11.55;;;12.80;99.90;;;;;;5034296;28;20052;-77
2021/08/31 02:17:04;;;;;;;;;;;12.70;99.90;;;;;;5044920;28;20029;-76
2021/08/31 02:19:31;;;;;;;18.90;11.23;;;12.80;99.90;;;;;;5035182;28;19909;-76
2021/08/31 02:21:57;;;;;;;15.32;11.40;;;12.80;99.90;;;;;;5033999;28;20479;-75
2021/08/31 02:24:23;;;;;;;17.30;11.60;;;12.70;99.90;;;;;;5046609;28;20030;-75
2021/08/31 02:26:49;;;;;;;18.63;11.27;;;12.70;99.90;;;;;;5034552;28;20029;-76
2021/08/31 02:29:15;;;;;;;18.60;11.57;;;12.70;99.90;;;;;;5035298;28;20042;-78
2021/08/31 02:31:42;;;;;;;18.58;12.20;;;12.70;99.90;;;;;;5033739;28;20467;-76
2021/08/31 02:34:08;;;;;;;15.32;11.70;;;12.70;99.90;;;;;;5033545;28;20036;-75
2021/08/31 02:36:35;;;;;;;17.63;11.35;;;12.60;99.90;;;;;;5028437;28;20038;-76
2021/08/31 02:39:02;;;;;;;16.35;11.65;;;12.60;99.90;;;;;;5032123;28;20064;-75
2021/08/31 02:41:28;;;;;;;19.10;12.40;;;12.60;99.90;;;;;;5031589;28;20414;-76
2021/08/31 02:43:55;;;;;;;26.38;12.20;;;12.60;99.90;;;;;;5038972;28;20044;-75
2021/08/31 02:46:21;;;;;;;18.63;12.15;;;12.60;99.90;;;;;;5036694;28;20052;-75
2021/08/31 02:48:47;;;;;;;21.23;12.40;;;12.60;99.90;;;;;;5031992;28;20041;-76
2021/08/31 02:51:14;;;;;;;17.40;11.40;;;12.60;99.90;;;;;;5032619;28;20057;-76
2021/08/31 02:53:40;;;;;;;17.80;12.10;;;12.60;99.90;;;;;;5032867;28;20487;-77
2021/08/31 02:56:06;;;;;;;21.52;13.07;;;12.60;99.90;;;;;;5030853;28;20080;-77
2021/08/31 02:58:33;;;;;;;21.40;12.48;;;12.60;99.90;;;;;;5031904;28;20045;-76
2021/08/31 03:01:15;;;;;;;17.00;12.25;;;12.60;99.90;;;;;;5015768;28;20041;-75
2021/08/31 03:03:42;;;;;;;20.00;12.13;;;12.60;99.90;;;;;;5031213;28;20041;-76
2021/08/31 03:06:08;;;;;;;18.27;13.02;;;12.60;99.90;;;;;;5031662;28;20045;-76
2021/08/31 03:08:35;;;;;;;18.80;12.65;;;12.50;99.90;;;;;;5015716;28;20042;-75
2021/08/31 03:11:02;;;;;;;18.35;12.57;;;12.60;99.90;;;;;;5015447;28;20045;-75
2021/08/31 03:13:28;;;;;;;17.05;12.48;;;12.50;99.90;;;;;;5037201;28;20029;-76
2021/08/31 03:15:54;;;;;;;17.33;11.50;;;12.50;99.90;;;;;;5016887;28;20033;-75
2021/08/31 03:18:20;;;;;;;18.25;11.88;;;12.40;99.90;;;;;;5027253;28;20364;-76
2021/08/31 03:20:46;;;;;;;17.30;11.52;;;12.30;99.90;;;;;;5024337;28;20038;-77
2021/08/31 03:23:13;;;;;;;21.83;11.63;;;12.30;99.90;;;;;;5018609;28;20026;-75
2021/08/31 03:25:39;;;;;;;16.75;12.25;;;12.30;99.90;;;;;;5018176;28;20041;-76
2021/08/31 03:28:05;;;;;;;20.40;12.93;;;12.40;99.90;;;;;;5018612;28;20044;-77
2021/08/31 03:30:32;;;;;;;18.00;12.80;;;12.30;99.90;;;;;;5028743;28;20041;-77
2021/08/31 03:32:58;;;;;;;19.13;12.80;;;12.30;99.90;;;;;;5018144;28;20504;-78
2021/08/31 03:35:25;;;;;;;19.20;12.70;;;12.20;99.90;;;;;;5028923;28;20045;-76
2021/08/31 03:37:51;;;;;;;18.20;12.70;;;12.20;99.90;;;;;;5055093;28;20415;-76
2021/08/31 03:40:17;;;;;;;21.05;12.55;;;12.30;99.90;;;;;;5041792;28;20467;-77
2021/08/31 03:42:46;;;;;;;23.63;13.20;;;12.30;99.90;;;;;;5038987;28;20044;-76
2021/08/31 03:45:14;;;;;;;21.63;14.38;;;12.30;99.90;;;;;;5040932;28;20033;-76
2021/08/31 03:47:40;;;;;;;17.60;12.55;;;12.30;99.90;;;;;;5040335;28;20490;-76
2021/08/31 03:50:07;;;;;;;19.77;13.43;;;12.30;99.90;;;;;;5038590;28;20064;-76
2021/08/31 03:52:33;;;;;;;19.05;13.70;;;12.30;99.90;;;;;;5039534;28;20467;-76
2021/08/31 03:55:00;;;;;;;22.25;14.25;;;12.30;99.90;;;;;;5042242;28;20033;-76
2021/08/31 03:57:27;;;;;;;22.05;14.25;;;12.30;99.90;;;;;;5049730;28;20033;-77
2021/08/31 03:59:53;;;;;;;23.23;13.80;;;12.30;99.90;;;;;;5043249;28;20052;-76
2021/08/31 04:02:21;;;;;;;22.42;14.10;;;12.30;99.90;;;;;;5055968;28;20040;-76
2021/08/31 04:04:48;;;;;;;19.95;13.75;;;12.30;99.90;;;;;;5036431;28;20041;-75
2021/08/31 04:07:15;;;;;;;24.80;14.38;;;12.30;99.90;;;;;;5035087;28;20029;-76
2021/08/31 04:09:41;;;;;;;18.50;13.60;;;12.20;99.90;;;;;;5034767;28;20037;-75
2021/08/31 04:12:08;;;;;;;21.85;14.10;;;12.20;99.90;;;;;;5035132;28;20038;-76
2021/08/31 04:14:34;;;;;;;23.27;14.00;;;12.20;99.90;;;;;;5039905;28;20036;-76
2021/08/31 04:17:00;;;;;;;21.20;15.43;;;12.20;99.90;;;;;;5051507;28;20041;-76
2021/08/31 04:19:26;;;;;;;21.25;13.75;;;12.20;99.90;;;;;;5053271;28;20037;-76
2021/08/31 04:21:53;;;;;;;22.85;13.73;;;12.10;99.90;;;;;;5038948;28;20037;-75
2021/08/31 04:24:19;;;;;;;21.55;14.60;;;12.10;99.90;;;;;;5033812;28;20463;-76
2021/08/31 04:26:45;;;;;;;21.55;14.00;;;12.10;99.90;;;;;;5035990;28;20487;-75
2021/08/31 04:29:11;;;;;;;22.08;15.02;;;12.00;99.90;;;;;;5034597;28;20033;-75
2021/08/31 04:31:37;;;;;;;21.27;13.73;;;12.00;99.90;;;;;;5052353;28;20033;-76
2021/08/31 04:34:04;;;;;;;19.35;13.52;;;12.00;99.90;;;;;;5037114;28;20026;-75
2021/08/31 04:36:30;;;;;;;20.52;13.43;;;11.90;99.90;;;;;;5034287;28;20124;-75
2021/08/31 04:38:56;;;;;;;23.80;14.55;;;11.90;99.90;;;;;;5050422;28;20033;-76
2021/08/31 04:41:22;;;;;;;20.60;14.27;;;11.80;99.90;;;;;;5035774;28;20061;-76
2021/08/31 04:43:48;;;;;;;20.38;14.00;;;11.80;99.90;;;;;;5047531;28;20037;-75
2021/08/31 04:46:15;;;;;;;24.42;13.98;;;11.80;99.90;;;;;;5041905;28;20033;-75
2021/08/31 04:48:41;;;;;;;21.35;14.18;;;11.90;99.90;;;;;;5040847;28;20112;-75
2021/08/31 04:51:07;;;;;;;20.42;13.63;;;11.80;99.90;;;;;;5051904;28;20029;-76
2021/08/31 04:53:33;;;;;;;21.00;13.88;;;11.80;99.90;;;;;;5033892;28;20471;-75
2021/08/31 04:55:59;;;;;;;23.45;14.27;;;11.80;99.90;;;;;;5032957;28;20056;-75
2021/08/31 04:58:25;;;;;;;24.13;13.55;;;11.80;99.90;;;;;;5033446;28;20459;-75
2021/08/31 05:00:52;;;;;;;22.48;14.75;;;11.90;99.90;;;;;;5033474;28;20054;-77
2021/08/31 05:03:18;;;;;;;22.17;14.82;;;12.00;99.90;;;;;;5058366;28;20037;-76
2021/08/31 05:05:44;;;;;;;20.38;14.30;;;12.00;99.90;;;;;;5040578;28;20040;-77
2021/08/31 05:08:11;;;;;;;22.83;14.73;;;12.10;99.90;;;;;;5041673;28;20025;-77
2021/08/31 05:10:37;;;;;;;22.08;13.85;;;12.10;99.90;;;;;;5055725;28;20037;-75
2021/08/31 05:13:03;;;;;;;22.10;13.90;;;12.20;99.90;;;;;;5041480;28;20037;-76
2021/08/31 05:15:30;;;;;;;21.85;13.05;;;12.20;99.90;;;;;;5033321;28;20026;-76
2021/08/31 05:17:58;;;;;;;24.90;13.80;;;12.20;99.90;;;;;;5033411;28;20060;-77
2021/08/31 05:20:27;;;;;;;18.73;12.98;;;12.20;99.90;;;;;;5033173;28;20036;-76
2021/08/31 05:22:54;;;;;;;21.67;12.70;;;12.20;99.90;;;;;;5033145;28;20045;-76
2021/08/31 05:25:20;;;;;;;20.20;13.25;;;12.20;99.90;;;;;;5033662;28;20052;-76
2021/08/31 05:27:47;;;;;;;18.00;12.30;;;12.20;99.90;;;;;;5031547;28;20046;-76
2021/08/31 05:30:14;;;;;;;19.73;13.00;;;12.20;99.90;;;;;;5033386;28;20038;-76
2021/08/31 05:32:40;;;;;;;20.77;13.88;;;12.30;99.90;;;;;;5033221;28;20494;-76
2021/08/31 05:35:06;;;;;;;21.17;14.90;;;12.90;99.90;;;;;;5032946;28;20398;-75
2021/08/31 05:37:32;;;;;;;15.52;11.82;;;13.60;99.90;;;;;;5033650;28;20474;-76
2021/08/31 05:39:59;;;;;;;9.20;8.25;;;14.50;99.90;;;;;;5036406;28;20256;-76
2021/08/31 05:42:25;;;;;;;9.10;7.75;;;15.30;99.90;;;;;;5043293;28;20032;-77
2021/08/31 05:44:51;;;;;;;8.60;6.80;;;16.30;99.90;;;;;;5035059;28;20057;-78
2021/08/31 05:47:17;;;;;;;7.38;5.78;;;17.30;99.90;;;;;;5034480;28;20033;-76
2021/08/31 05:49:44;;;;;;;7.00;5.80;;;17.90;99.90;;;;;;5033039;28;20041;-76
2021/08/31 05:52:12;;;;;;;8.05;5.63;;;17.70;99.70;;;;;;5033649;28;20041;-77
2021/08/31 05:54:38;;;;;;;8.70;6.32;;;16.80;99.90;;;;;;5032611;28;20037;-77
2021/08/31 05:57:09;;;;;;;7.10;5.93;;;15.90;99.90;;;;;;5044791;28;20044;-77
2021/08/31 05:59:40;;;;;;;8.82;6.05;;;15.80;99.90;;;;;;5033676;28;20418;-77
2021/08/31 06:02:08;;;;;;;9.70;6.10;;;15.50;99.90;;;;;;5048003;28;20039;-77
2021/08/31 06:04:36;;;;;;;6.63;5.35;;;15.20;99.90;;;;;;5031292;28;20052;-77
2021/08/31 06:07:06;;;;;;;8.45;6.72;;;14.80;99.90;;;;;;5032099;28;20089;-77
2021/08/31 06:09:36;;;;;;;7.03;6.28;;;14.70;99.90;;;;;;5032819;28;20046;-76
2021/08/31 06:12:04;;;;;;;7.80;5.97;;;15.20;99.90;;;;;;5039235;28;20032;-77
2021/08/31 06:14:30;;;;;;;7.50;5.82;;;16.00;99.90;;;;;;5041959;28;20463;-80
2021/08/31 06:16:57;;;;;;;7.65;6.00;;;17.00;99.90;;;;;;5051416;28;20028;-84
2021/08/31 06:19:23;;;;;;;8.13;5.47;;;17.70;99.90;;;;;;5048229;28;20032;-84
2021/08/31 06:21:49;;;;;;;6.78;5.30;;;17.90;99.90;;;;;;5048987;28;20033;-83
2021/08/31 06:24:15;;;;;;;7.32;5.90;;;17.40;99.90;;;;;;5044504;28;20458;-83
2021/08/31 06:26:42;;;;;;;8.45;5.95;;;16.10;99.90;;;;;;5040150;28;20045;-83
2021/08/31 06:29:08;;;;;;;9.38;6.05;;;15.40;99.90;;;;;;5032659;28;20715;-81
2021/08/31 06:31:34;;;;;;;8.68;6.22;;;15.00;99.90;;;;;;5033433;28;20029;-83
2021/08/31 06:34:00;;;;;;;8.32;6.32;;;14.80;99.90;;;;;;5037751;28;20051;-83
2021/08/31 06:36:26;;;;;;;8.05;6.80;;;14.70;99.90;;;;;;5052699;28;20045;-81
2021/08/31 06:38:53;;;;;;;10.63;6.60;;;14.60;99.90;;;;;;5050252;28;20053;-82
2021/08/31 06:41:19;;;;;;;8.00;6.85;;;14.50;99.90;;;;;;5035054;28;20060;-83
2021/08/31 06:43:46;;;;;;;7.75;6.60;;;14.60;99.90;;;;;;5033703;28;20033;-83
2021/08/31 06:46:16;;;;;;;9.23;6.82;;;14.80;99.90;;;;;;5036812;28;20048;-83
2021/08/31 06:48:45;;;;;;;8.98;6.53;;;14.90;99.90;;;;;;5037907;28;20054;-84
2021/08/31 06:51:13;;;;;;;7.65;6.25;;;14.80;99.90;;;;;;5051164;28;20044;-83
2021/08/31 06:53:42;;;;;;;8.20;6.32;;;14.90;99.90;;;;;;5037074;28;20367;-83
2021/08/31 06:56:09;;;;;;;9.63;6.60;;;14.80;99.90;;;;;;5052250;28;20064;-83
2021/08/31 06:58:36;;;;;;;11.00;6.72;;;14.80;99.90;;;;;;5037590;28;20025;-83
2021/08/31 07:01:02;;;;;;;8.57;7.20;;;14.80;99.90;;;;;;5037087;28;20383;-84
2021/08/31 07:03:28;;;;;;;6.90;5.82;;;15.80;99.90;;;;;;5055659;28;20048;-83
2021/08/31 07:05:54;;;;;;;8.43;5.60;;;16.60;99.90;;;;;;5041748;28;20037;-85
2021/08/31 07:08:20;;;;;;;5.78;4.40;;;17.10;99.90;;;;;;5039656;28;20040;-84
2021/08/31 07:10:47;;;;;;;5.95;4.97;;;17.10;99.90;;;;;;5053409;28;20455;-82
2021/08/31 07:13:15;;;;;;;10.48;5.53;;;16.90;99.90;;;;;;5036726;28;20463;-84
2021/08/31 07:15:42;;;;;;;6.65;4.88;;;17.30;99.90;;;;;;5037062;28;20052;-86
2021/08/31 07:18:09;;;;;;;5.93;4.63;;;18.00;99.90;;;;;;5036776;28;20391;-82
2021/08/31 07:20:35;;;;;;;7.47;4.55;;;18.20;98.70;;;;;;5039753;28;20033;-80
2021/08/31 07:23:02;;;;;;;8.15;5.22;;;18.20;98.20;;;;;;5044699;28;20033;-82
2021/08/31 07:25:28;;;;;;;8.18;4.90;;;17.80;98.10;;;;;;5040123;28;20034;-81
2021/08/31 07:27:54;;;;;;;5.47;4.20;;;17.70;97.70;;;;;;5037017;28;20079;-77
2021/08/31 07:30:20;;;;;;;6.03;4.50;;;17.80;96.70;;;;;;5036148;28;20033;-83
2021/08/31 07:32:46;;;;;;;6.70;4.15;;;18.30;95.80;;;;;;5047191;28;20021;-78
2021/08/31 07:35:13;;;;;;;5.22;4.07;;;18.60;94.70;;;;;;5042976;28;20505;-82
2021/08/31 07:37:39;;;;;;;5.25;4.25;;;19.10;93.70;;;;;;5036305;28;20387;-82
2021/08/31 07:40:06;;;;;;;5.25;3.83;;;18.90;93.30;;;;;;5036224;28;20053;-82
2021/08/31 07:42:33;;;;;;;5.03;4.07;;;18.50;94.00;;;;;;5035943;28;20041;-82
2021/08/31 07:45:04;;;;;;;4.55;3.75;;;18.10;93.70;;;;;;5036103;28;20040;-80
2021/08/31 07:47:31;;;;;;;6.03;4.45;;;17.40;94.90;;;;;;5048419;28;20029;-81
2021/08/31 07:49:58;;;;;;;5.25;4.30;;;17.00;96.40;;;;;;5035569;28;20041;-83
2021/08/31 07:52:25;;;;;;;7.85;4.20;;;16.90;97.20;;;;;;5036645;28;20378;-81
2021/08/31 07:54:51;;;;;;;6.22;4.35;;;16.50;97.20;;;;;;5037503;28;20105;-84
2021/08/31 07:57:17;;;;;;;7.38;4.82;;;16.30;98.40;;;;;;5042627;28;20478;-79
2021/08/31 07:59:44;;;;;;;6.65;4.32;;;16.20;98.90;;;;;;5046110;28;20489;-81
2021/08/31 08:02:10;;;;;;;7.22;4.22;;;16.30;98.90;;;;;;5035700;28;20037;-77
2021/08/31 08:04:36;;;;;;;6.45;4.00;;;16.60;98.60;;;;;;5036157;28;20040;-82
2021/08/31 08:07:02;;;;;;;4.82;4.03;;;17.00;97.90;;;;;;5035500;28;20371;-81
2021/08/31 08:09:29;;;;;;;6.05;3.65;;;17.10;96.50;;;;;;5037713;28;20025;-84
2021/08/31 08:11:55;;;;;;;7.35;4.30;;;16.70;97.70;;;;;;5036009;28;20040;-84
2021/08/31 08:14:21;;;;;;;5.13;3.88;;;16.60;97.90;;;;;;5037677;28;20209;-82
2021/08/31 08:16:48;;;;;;;9.00;4.72;;;16.50;97.10;;;;;;5035965;28;20401;-81
2021/08/31 08:19:14;;;;;;;5.97;3.67;;;16.60;97.10;;;;;;5035668;28;20029;-84
2021/08/31 08:21:40;;;;;;;5.65;4.35;;;16.70;96.90;;;;;;5038051;28;20030;-85
2021/08/31 08:24:08;;;;;;;5.40;3.88;;;16.70;96.40;;;;;;5043875;28;20149;-83
2021/08/31 08:26:36;;;;;;;8.50;3.60;;;16.80;96.80;;;;;;5035513;28;20041;-85
2021/08/31 08:29:04;;;;;;;6.35;3.97;;;16.70;96.40;;;;;;5035122;28;20037;-84
2021/08/31 08:31:33;;;;;;;6.18;3.95;;;16.90;96.40;;;;;;5036206;28;20037;-83
2021/08/31 08:34:01;;;;;;;6.00;3.83;;;16.80;95.90;;;;;;5050107;28;20047;-79
2021/08/31 08:36:28;;;;;;;5.93;3.58;;;16.70;96.20;;;;;;5036430;28;20044;-79
2021/08/31 08:38:54;;;;;;;5.30;3.60;;;16.80;96.40;;;;;;5033840;28;20034;-79
2021/08/31 08:41:20;;;;;;;4.88;3.40;;;17.00;96.40;;;;;;5034874;28;20029;-78
2021/08/31 08:43:46;;;;;;;5.78;3.47;;;17.20;95.80;;;;;;5035061;28;20033;-81
2021/08/31 08:46:14;;;;;;;6.10;3.97;;;17.20;95.70;;;;;;5035341;28;20056;-83
2021/08/31 08:48:40;;;;;;;5.85;4.30;;;17.10;95.60;;;;;;5042401;28;20040;-76
2021/08/31 08:51:06;;;;;;;6.35;4.40;;;17.10;94.90;;;;;;5045402;28;20395;-78
2021/08/31 08:53:34;;;;;;;6.07;3.83;;;17.10;95.00;;;;;;5034726;28;20042;-82
2021/08/31 08:56:01;;;;;;;4.63;3.88;;;17.40;94.60;;;;;;5050817;28;20037;-81
2021/08/31 08:58:28;;;;;;;6.30;3.53;;;17.40;94.30;;;;;;5042202;28;20033;-81
2021/08/31 09:01:07;;;;;;;31.73;25.05;;;17.30;93.70;;;;;;5053212;28;20470;-80
2021/08/31 09:03:36;;;;;;;6.22;4.43;;;17.60;93.10;;;;;;5036946;28;20391;-82
2021/08/31 09:06:10;;;;;;;5.28;3.25;;;17.90;93.10;;;;;;5050012;28;20029;-83
2021/08/31 09:08:42;;;;;;;5.05;3.80;;;18.10;92.40;;;;;;5047496;28;20037;-80
2021/08/31 09:11:20;;;;;;;4.93;3.33;;;18.10;91.70;;;;;;5047848;28;20061;-83
2021/08/31 09:13:48;;;;;;;4.65;3.53;;;18.60;91.90;;;;;;5038768;28;20045;-84
2021/08/31 09:16:28;;;;;;;5.43;3.88;;;18.60;91.60;;;;;;5047113;28;20025;-82
2021/08/31 09:18:56;;;;;;;5.70;3.13;;;18.60;91.40;;;;;;5051134;28;20037;-82
2021/08/31 09:21:29;;;;;;;7.03;3.60;;;18.50;91.40;;;;;;5052472;28;20049;-84
2021/08/31 09:23:58;;;;;;;5.65;3.92;;;18.60;91.30;;;;;;5035666;28;20045;-81
2021/08/31 09:26:36;;;;;;;4.18;3.50;;;19.30;90.20;;;;;;5033584;28;20458;-83
2021/08/31 09:29:19;;;;;;;4.32;3.40;;;19.70;89.00;;;;;;5038836;28;20417;-81
2021/08/31 09:31:56;;;;;;;7.25;3.63;;;19.60;90.40;;;;;;5040957;28;20044;-80
2021/08/31 09:34:31;;;;;;;5.88;3.25;;;19.50;88.60;;;;;;5032369;28;20040;-82
2021/08/31 09:37:34;;;;;;;3.72;3.15;;;18.90;89.60;;;;;;5059075;28;20041;-82
2021/08/31 09:40:16;;;;;;;3.75;3.35;;;18.40;90.50;;;;;;5031678;28;20483;-80
2021/08/31 09:42:55;;;;;;;5.32;4.20;;;18.50;90.70;;;;;;5032765;28;20041;-80
2021/08/31 09:45:27;;;;;;;5.05;3.78;;;18.90;88.70;;;;;;5032439;28;20032;-79
2021/08/31 09:47:55;;;;;;;5.13;3.05;;;19.10;86.60;;;;;;5031510;28;20040;-82
2021/08/31 09:50:29;;;;;;;6.22;3.72;;;19.30;86.70;;;;;;5032077;28;20036;-82
2021/08/31 09:53:06;;;;;;;5.15;3.00;;;19.40;86.40;;;;;;5032077;28;20422;-83
2021/08/31 09:55:33;;;;;;;4.70;2.97;;;19.70;86.70;;;;;;5032080;28;20390;-79
2021/08/31 09:58:08;;;;;;;5.72;3.33;;;19.40;84.10;;;;;;5046101;28;20463;-81
2021/08/31 10:00:34;;;;;;;4.15;3.15;;;19.40;84.30;;;;;;5036972;28;20037;-81
2021/08/31 10:03:01;;;;;;;4.03;3.03;;;19.70;83.50;;;;;;5049088;28;20037;-79
2021/08/31 10:05:27;;;;;;;3.47;2.50;;;19.30;83.20;;;;;;5031423;28;20036;-81
2021/08/31 10:07:54;;;;;;;3.88;2.70;;;19.20;84.60;;;;;;5031476;28;20049;-79
2021/08/31 10:10:21;;;;;;;3.75;2.92;;;19.50;83.50;;;;;;5051829;28;20040;-82
2021/08/31 10:12:50;;;;;;;5.55;3.50;;;19.50;81.60;;;;;;5045186;28;20048;-81
2021/08/31 10:15:16;;;;;;;4.65;2.88;;;20.00;81.70;;;;;;5029183;28;20037;-80
2021/08/31 10:17:46;;;;;;;6.50;3.63;;;20.20;78.80;;;;;;5030561;28;20041;-81
2021/08/31 10:20:16;;;;;;;4.03;3.08;;;20.10;81.00;;;;;;5031127;28;20046;-82
2021/08/31 10:22:43;;;;;;;4.28;2.78;;;19.30;81.90;;;;;;5032828;28;20479;-82
2021/08/31 10:25:09;;;;;;;3.97;3.13;;;19.40;82.10;;;;;;5039148;28;20387;-83
2021/08/31 10:27:39;;;;;;;4.85;3.13;;;19.40;81.80;;;;;;5037601;28;20132;-82
2021/08/31 10:30:20;;;;;;;4.50;3.08;;;19.70;80.30;;;;;;5044865;28;20037;-79
2021/08/31 10:32:51;;;;;;;6.82;3.50;;;19.90;81.00;;;;;;5061699;28;20048;-78
2021/08/31 10:35:39;;;;;;;7.20;3.38;;;19.50;80.80;;;;;;4993335;28;1096196;-81
2021/08/31 10:38:08;;;;;;;6.30;3.40;;;19.30;82.30;;;;;;5032309;28;20608;-84
2021/08/31 10:40:40;;;;;;;4.05;2.95;;;19.50;81.20;;;;;;5039417;28;20033;-81
2021/08/31 10:43:09;;;;;;;3.50;2.55;;;19.60;81.30;;;;;;5038008;28;20395;-80
2021/08/31 10:45:44;;;;;;;5.65;3.53;;;19.50;81.40;;;;;;5065527;28;20042;-81
2021/08/31 10:48:22;;;;;;;5.63;2.70;;;19.20;82.80;;;;;;5033721;28;20475;-81
2021/08/31 10:50:51;;;;;;;4.68;3.20;;;19.60;82.60;;;;;;5044111;28;20032;-79
2021/08/31 10:53:36;;;;;;;4.80;3.10;;;19.90;79.80;;;;;;5048815;28;20033;-81
2021/08/31 10:56:21;;;;;;;4.43;3.42;;;20.10;80.90;;;;;;5032198;28;20040;-81
2021/08/31 10:58:56;;;;;;;5.07;2.83;;;20.10;80.50;;;;;;5048873;28;20029;-81
2021/08/31 11:01:24;;;;;;;3.40;2.50;;;19.90;79.40;;;;;;5040342;28;20045;-82
2021/08/31 11:03:53;;;;;;;5.18;3.15;;;19.90;81.20;;;;;;5046710;28;20052;-82
2021/08/31 11:06:28;;;;;;;5.15;2.85;;;19.80;81.10;;;;;;5037909;28;20041;-83
2021/08/31 11:09:12;;;;;;;3.80;2.97;;;19.70;80.30;;;;;;5048797;28;20506;-80
2021/08/31 11:11:46;;;;;;;4.85;2.83;;;19.70;77.80;;;;;;5034645;28;20042;-82
2021/08/31 11:14:14;;;;;;;4.35;3.05;;;20.10;78.20;;;;;;5034956;28;20033;-82
2021/08/31 11:16:41;;;;;;;4.97;3.22;;;20.30;77.90;;;;;;5034245;28;20057;-82
2021/08/31 11:19:27;;;;;;;3.90;2.58;;;20.40;78.60;;;;;;5054296;28;20068;-81
2021/08/31 11:21:56;;;;;;;6.03;3.13;;;20.70;76.60;;;;;;5038625;28;20033;-76
2021/08/31 11:24:23;;;;;;;3.70;2.70;;;20.60;75.50;;;;;;5034890;28;20367;-81
2021/08/31 11:26:49;;;;;;;3.53;3.00;;;20.60;76.80;;;;;;5033066;28;20040;-81
2021/08/31 11:29:16;;;;;;;4.38;2.97;;;20.40;76.10;;;;;;5046265;28;20033;-82
2021/08/31 11:31:42;;;;;;;4.65;3.42;;;20.40;76.10;;;;;;5033503;28;20041;-81
2021/08/31 11:34:11;;;;;;;3.58;2.80;;;20.50;75.90;;;;;;5051447;28;20052;-82
2021/08/31 11:36:42;;;;;;;4.97;3.23;;;20.30;74.90;;;;;;5043307;28;20393;-81
2021/08/31 11:39:12;;;;;;;4.90;3.22;;;19.90;77.10;;;;;;5046369;28;20041;-82
2021/08/31 11:41:43;;;;;;;5.82;3.50;;;19.80;78.10;;;;;;5037252;28;20041;-83
2021/08/31 11:44:16;;;;;;;7.13;3.15;;;19.60;78.90;;;;;;5036451;28;20050;-80
2021/08/31 11:46:47;;;;;;;3.60;2.45;;;19.60;78.80;;;;;;5043782;28;20112;-82
2021/08/31 11:49:23;;;;;;;4.18;2.92;;;19.60;79.60;;;;;;5047051;28;20040;-83
2021/08/31 11:51:59;;;;;;;4.55;3.40;;;19.70;78.90;;;;;;5034117;28;20057;-81
2021/08/31 11:54:29;;;;;;;4.35;2.97;;;19.70;79.10;;;;;;5048211;28;20052;-82
2021/08/31 11:57:06;;;;;;;4.10;2.75;;;19.80;78.10;;;;;;5040041;28;20033;-81
2021/08/31 11:59:48;;;;;;;5.25;3.55;;;19.90;77.90;;;;;;5043675;28;20137;-82
2021/08/31 12:02:21;;;;;;;5.20;3.80;;;20.10;77.40;;;;;;5035238;28;20045;-82
2021/08/31 12:04:57;;;;;;;4.05;3.17;;;20.20;77.30;;;;;;5050283;28;20034;-84
2021/08/31 12:07:44;;;;;;;3.83;2.80;;;20.20;76.20;;;;;;5035688;28;20089;-82
2021/08/31 12:10:22;;;;;;;4.15;2.97;;;20.00;77.00;;;;;;5035539;28;20033;-82
2021/08/31 12:12:49;;;;;;;4.95;3.30;;;20.10;77.80;;;;;;5035297;28;20040;-78
2021/08/31 12:15:15;;;;;;;4.97;2.38;;;20.10;77.70;;;;;;5044009;28;20032;-80
2021/08/31 12:17:46;;;;;;;4.95;2.92;;;20.10;77.20;;;;;;5041608;28;20506;-79
2021/08/31 12:20:24;;;;;;;4.15;3.03;;;19.80;76.70;;;;;;5033632;28;20033;-81
2021/08/31 12:22:52;;;;;;;6.68;3.53;;;19.60;76.70;;;;;;5034093;28;20056;-80
2021/08/31 12:25:19;;;;;;;3.85;3.00;;;19.40;77.80;;;;;;5034040;28;20029;-80
2021/08/31 12:27:50;;;;;;;5.88;3.22;;;19.50;77.90;;;;;;5048761;28;20044;-81
2021/08/31 12:30:18;;;;;;;4.75;3.55;;;19.20;78.90;;;;;;5034441;28;20383;-82
2021/08/31 12:32:55;;;;;;;5.47;3.20;;;19.20;79.40;;;;;;5034695;28;20037;-79
2021/08/31 12:35:34;;;;;;;4.53;3.00;;;19.20;79.70;;;;;;5046499;28;20041;-78
2021/08/31 12:38:04;;;;;;;5.05;3.38;;;19.20;80.00;;;;;;5033593;28;20029;-81
2021/08/31 12:40:31;;;;;;;5.63;4.10;;;19.20;80.40;;;;;;5049910;28;20033;-79
2021/08/31 12:43:05;;;;;;;3.70;2.85;;;19.30;80.70;;;;;;5039306;28;20052;-77
2021/08/31 12:45:33;;;;;;;6.28;3.53;;;19.20;80.80;;;;;;5043631;28;20044;-79
2021/08/31 12:48:00;;;;;;;3.70;2.90;;;19.20;80.70;;;;;;5033622;28;20033;-79